METAR AND TAF INFORMATION
METAR FOR LZIB
ADDS - METARS form results

(0244 UTC 17 September 2019)
Data provider http://aviationweather.gov/metar/data/
 
METAR text: LZIB 170230Z 28006KT CAVOK 19/12 Q1014
Conditions at: LZIB (BRATISLAVA IVANK, SK) observed 0230 UTC 17 September 2019
Temperature: 19.0°C (66°F)
Dewpoint: 12.0°C (54°F) [RH = 64%]
Pressure (altimeter): 29.94 inches Hg (1014.0 mb)
Winds: from the W (280 degrees) at 7 MPH (6 knots; 3.1 m/s)
Visibility: 6 or more miles (10+ km)
Ceiling: ceiling and visibility are OK
Clouds: unknown
Weather: no significant weather observed at this time

METAR text: LZIB 170200Z 26005KT CAVOK 20/12 Q1014
Conditions at: LZIB (BRATISLAVA IVANK, SK) observed 0200 UTC 17 September 2019
Temperature: 20.0°C (68°F)
Dewpoint: 12.0°C (54°F) [RH = 60%]
Pressure (altimeter): 29.94 inches Hg (1014.0 mb)
Winds: from the W (260 degrees) at 6 MPH (5 knots; 2.6 m/s)
Visibility: 6 or more miles (10+ km)
Ceiling: ceiling and visibility are OK
Clouds: unknown
Weather: no significant weather observed at this time

Forecast for: LZIB (BRATISLAVA IVANK, SK)
Text: TAF LZIB 162300Z 1700/1800 VRB02KT CAVOK
Forecast period: 0000 to 0600 UTC 17 September 2019
Forecast type: FROM: standard forecast or significant change
Winds: variable direction winds at 2 MPH (2 knots; 1.0 m/s)
Visibility: 6 or more miles 10+ km)
Ceiling: unknown
Clouds: missing
Weather: NSW  (no significant weather)
Text: TEMPO 1704/1712 9999 BKN040
Forecast period: 0400 to 1200 UTC 17 September 2019
Forecast type: TEMPORARY: The following changes expected for less than half the time period
Visibility: 6 or more miles 10+ km)
Ceiling: 4000 feet AGL
Clouds: broken clouds at 4000 feet AGL
Weather: no significant weather forecast for this period
Text: BECMG 1706/1708 32010KT
Forecast period: 0600 UTC 17 September 2019 to 0000 UTC 18 September 2019
Forecast type: BECOMING: Conditions expected to become as follows by 0800 UTC 17 September 2019
Winds: from the NW (320 degrees) at 12 MPH (10 knots; 5.1 m/s)
Visibility: 6 or more miles 10+ km)
Ceiling: unknown
Clouds: missing
Weather: NSW  (no significant weather)

 AIRPORT MAP

 RUNWAY INFORMATION
Runway 04 Runway length 9515 ft Runway width 197 ft
Runway elevation 436 ft Runway displaced threshold 0 ft Runway heading 44
Runway 22 Runway length 9515 ft Runway width 197 ft
Runway elevation 430 ft Runway displaced threshold 0 ft Runway heading 224
Runway 13 Runway length 10466 ft Runway width 148 ft
Runway elevation 433 ft Runway displaced threshold 0 ft Runway heading 134
Runway 31 Runway length 10466 ft Runway width 148 ft
Runway elevation 434 ft Runway displaced threshold 777 ft Runway heading 314

 AIRPORT FREQUENCIES
Type APP Name APP Frequency 120.9 MHZ
Type ATIS Name ATIS Frequency 128.65 MHZ
Type TWR Name TWR Frequency 118.3 MHZ

 AIRPORT NEAR NAVIGATION AIDS
Type VOR-DME Name Janovce Frequency 110800 KHZ
Type NDB Name Stefanik South Frequency 330 KHZ
Type NDB Name Stefanik North Frequency 391 KHZ